createdAt,value
2018-02-04T00:01:43.400Z,23.47
2018-02-04T00:04:10.878Z,26.63
2018-02-04T00:06:38.330Z,23.30
2018-02-04T00:09:05.798Z,23.37
2018-02-04T00:11:33.271Z,23.63
2018-02-04T00:14:00.885Z,23.83
2018-02-04T00:16:28.339Z,24.37
2018-02-04T00:18:55.820Z,27.47
2018-02-04T00:21:23.289Z,21.73
2018-02-04T00:23:50.746Z,24.97
2018-02-04T00:26:18.219Z,25.33
2018-02-04T00:28:45.730Z,23.07
2018-02-04T00:31:13.185Z,22.83
2018-02-04T00:33:40.642Z,24.93
2018-02-04T00:36:08.115Z,28.17
2018-02-04T00:38:35.573Z,28.83
2018-02-04T00:41:05.917Z,25.67
2018-02-04T00:43:33.379Z,33.67
2018-02-04T00:46:00.860Z,32.67
2018-02-04T00:48:28.323Z,30.93
2018-02-04T00:50:55.803Z,35.43
2018-02-04T00:53:23.273Z,35.00
2018-02-04T00:55:50.755Z,34.93
2018-02-04T00:58:18.215Z,30.63
2018-02-04T01:00:45.702Z,27.60
2018-02-04T01:03:13.159Z,26.97
2018-02-04T01:05:40.626Z,27.87
2018-02-04T01:08:08.089Z,28.53
2018-02-04T01:10:35.571Z,29.60
2018-02-04T01:13:03.023Z,31.70
2018-02-04T01:15:30.506Z,28.67
2018-02-04T01:17:57.967Z,31.33
2018-02-04T01:20:25.443Z,31.37
2018-02-04T01:22:52.907Z,34.23
2018-02-04T01:25:20.380Z,36.73
2018-02-04T01:27:47.835Z,37.70
2018-02-04T01:30:15.311Z,40.27
2018-02-04T01:32:42.767Z,38.13
2018-02-04T01:35:10.242Z,39.53
2018-02-04T01:37:37.699Z,37.17
2018-02-04T01:40:05.181Z,37.33
2018-02-04T01:42:32.643Z,41.53
2018-02-04T01:45:00.127Z,41.10
2018-02-04T01:47:27.574Z,40.57
2018-02-04T01:49:55.039Z,37.47
2018-02-04T01:52:22.510Z,38.43
2018-02-04T01:54:49.976Z,40.27
2018-02-04T01:57:17.446Z,40.53
2018-02-04T01:59:44.902Z,39.30
2018-02-04T02:02:12.387Z,38.13
2018-02-04T02:04:39.843Z,38.90
2018-02-04T02:07:07.319Z,40.00
2018-02-04T02:09:34.774Z,39.13
2018-02-04T02:12:02.251Z,40.77
2018-02-04T02:14:29.712Z,47.60
2018-02-04T02:16:57.198Z,41.97
2018-02-04T02:19:24.658Z,50.97
2018-02-04T02:21:52.162Z,55.83
2018-02-04T02:24:19.618Z,48.73
2018-02-04T02:26:47.100Z,50.97
2018-02-04T02:29:14.567Z,55.03
2018-02-04T02:31:42.052Z,54.13
2018-02-04T02:34:09.510Z,52.00
2018-02-04T02:36:36.992Z,60.97
2018-02-04T02:39:04.454Z,58.60
2018-02-04T02:41:31.940Z,53.83
2018-02-04T02:43:59.401Z,50.60
2018-02-04T02:46:26.883Z,50.13
2018-02-04T02:48:54.340Z,45.17
2018-02-04T02:51:21.814Z,44.67
2018-02-04T02:53:49.274Z,38.13
2018-02-04T02:56:16.755Z,41.60
2018-02-04T02:58:44.272Z,35.57
2018-02-04T03:01:11.762Z,25.60
2018-02-04T03:03:39.214Z,28.83
2018-02-04T03:06:06.688Z,30.53
2018-02-04T03:08:34.151Z,26.87
2018-02-04T03:11:01.607Z,25.27
2018-02-04T03:13:29.088Z,21.37
2018-02-04T03:15:56.560Z,19.47
2018-02-04T03:18:24.042Z,18.60
2018-02-04T03:20:51.555Z,17.50
2018-02-04T03:23:19.035Z,16.10
2018-02-04T03:25:46.494Z,15.50
2018-02-04T03:28:13.980Z,17.33
2018-02-04T03:30:41.446Z,16.43
2018-02-04T03:33:08.927Z,16.10
2018-02-04T03:38:10.251Z,17.37
2018-02-04T03:40:37.706Z,18.13
2018-02-04T03:43:05.183Z,18.53
2018-02-04T03:45:32.643Z,19.30
2018-02-04T03:48:00.133Z,18.70
2018-02-04T03:50:27.587Z,18.70
2018-02-04T03:52:55.059Z,18.90
2018-02-04T03:55:22.529Z,20.97
2018-02-04T03:57:50.038Z,19.27
2018-02-04T04:00:17.514Z,19.83
2018-02-04T04:02:44.982Z,22.40
2018-02-04T04:05:12.461Z,23.50
2018-02-04T04:07:39.939Z,21.43
2018-02-04T04:10:07.397Z,25.47
2018-02-04T04:12:34.876Z,30.03
2018-02-04T04:15:02.351Z,29.77
2018-02-04T04:17:29.847Z,30.70
2018-02-04T04:19:57.315Z,30.80
2018-02-04T04:22:24.786Z,30.83
2018-02-04T04:24:52.255Z,32.50
2018-02-04T04:27:19.725Z,33.67
2018-02-04T04:29:47.187Z,31.30
2018-02-04T04:32:14.659Z,33.97
2018-02-04T04:34:42.127Z,30.53
2018-02-04T04:37:09.602Z,29.67
2018-02-04T04:39:37.078Z,32.47
2018-02-04T04:42:04.537Z,28.53
2018-02-04T04:44:32.014Z,29.60
2018-02-04T04:46:59.479Z,28.63
2018-02-04T04:49:26.959Z,31.50
2018-02-04T04:51:54.418Z,28.47
2018-02-04T04:54:21.890Z,30.70
2018-02-04T04:56:49.393Z,30.20
2018-02-04T04:59:16.875Z,32.43
2018-02-04T05:01:44.343Z,26.47
2018-02-04T05:04:11.822Z,23.80
2018-02-04T05:06:39.292Z,23.40
2018-02-04T05:09:06.770Z,22.90
2018-02-04T05:11:34.231Z,23.10
2018-02-04T05:14:01.708Z,23.33
2018-02-04T05:16:29.166Z,22.33
2018-02-04T05:18:56.667Z,22.60
2018-02-04T05:21:24.120Z,21.63
2018-02-04T05:23:51.596Z,22.27
2018-02-04T05:26:19.054Z,22.73
2018-02-04T05:28:46.531Z,21.00
2018-02-04T05:31:13.987Z,21.10
2018-02-04T05:33:41.462Z,19.20
2018-02-04T05:36:08.923Z,18.97
2018-02-04T05:38:36.405Z,20.67
2018-02-04T05:41:03.867Z,22.73
2018-02-04T05:43:31.351Z,20.50
2018-02-04T05:45:58.823Z,23.30
2018-02-04T05:48:26.301Z,25.03
2018-02-04T05:50:53.779Z,22.77
2018-02-04T05:53:21.267Z,20.77
2018-02-04T05:55:48.735Z,23.57
2018-02-04T05:58:16.214Z,20.30
2018-02-04T06:00:43.676Z,22.83
2018-02-04T06:03:11.151Z,20.80
2018-02-04T06:05:38.617Z,19.53
2018-02-04T06:08:06.074Z,21.37
2018-02-04T06:10:33.552Z,18.53
2018-02-04T06:13:01.022Z,19.10
2018-02-04T06:15:28.531Z,21.40
2018-02-04T06:17:55.997Z,21.00
2018-02-04T06:20:23.487Z,16.73
2018-02-04T06:22:50.953Z,17.90
2018-02-04T06:25:18.441Z,15.07
2018-02-04T06:27:45.902Z,15.60
2018-02-04T06:30:13.383Z,14.87
2018-02-04T06:32:40.847Z,15.77
2018-02-04T06:35:08.330Z,12.53
2018-02-04T06:37:35.798Z,14.37
2018-02-04T06:40:03.283Z,16.63
2018-02-04T06:42:30.743Z,16.27
2018-02-04T06:44:58.227Z,14.07
2018-02-04T06:47:25.688Z,11.20
2018-02-04T06:49:53.184Z,11.10
2018-02-04T06:52:20.639Z,11.73
2018-02-04T06:54:48.110Z,11.40
2018-02-04T06:57:15.562Z,9.43
2018-02-04T06:59:43.047Z,14.53
2018-02-04T07:02:10.503Z,12.00
2018-02-04T07:04:37.982Z,10.63
2018-02-04T07:07:05.434Z,11.63
2018-02-04T07:09:32.916Z,10.23
2018-02-04T07:12:00.372Z,8.67
2018-02-04T07:14:27.844Z,8.47
2018-02-04T07:16:55.302Z,7.37
2018-02-04T07:19:22.772Z,8.17
2018-02-04T07:21:50.231Z,8.00
2018-02-04T07:24:17.699Z,7.17
2018-02-04T07:26:45.155Z,6.97
2018-02-04T07:29:12.630Z,6.83
2018-02-04T07:31:40.097Z,6.97
2018-02-04T07:34:07.558Z,7.63
2018-02-04T07:36:35.026Z,6.63
2018-02-04T07:39:02.475Z,8.23
2018-02-04T07:41:29.951Z,7.90
2018-02-04T07:43:57.412Z,8.50
2018-02-04T07:46:24.885Z,8.03
2018-02-04T07:48:52.330Z,7.47
2018-02-04T07:51:19.805Z,8.83
2018-02-04T07:53:47.258Z,7.07
2018-02-04T07:56:14.726Z,8.37
2018-02-04T07:58:42.217Z,7.87
2018-02-04T08:01:09.705Z,6.73
2018-02-04T08:03:37.167Z,6.47
2018-02-04T08:06:04.651Z,6.27
2018-02-04T08:08:32.107Z,5.43
2018-02-04T08:10:59.578Z,5.90
2018-02-04T08:13:27.037Z,6.47
2018-02-04T08:15:54.579Z,5.90
2018-02-04T08:18:22.027Z,8.63
2018-02-04T08:20:49.498Z,5.50
2018-02-04T08:23:16.955Z,5.83
2018-02-04T08:25:44.426Z,6.23
2018-02-04T08:28:11.887Z,4.50
2018-02-04T08:30:39.360Z,5.73
2018-02-04T08:33:06.815Z,4.23
2018-02-04T08:35:34.312Z,4.30
2018-02-04T08:38:01.759Z,6.17
2018-02-04T08:40:29.239Z,4.87
2018-02-04T08:42:56.763Z,5.33
2018-02-04T08:45:24.239Z,6.67
2018-02-04T08:47:51.686Z,6.47
2018-02-04T08:50:19.164Z,6.70
2018-02-04T08:52:46.618Z,5.97
2018-02-04T08:55:14.102Z,5.20
2018-02-04T08:57:41.563Z,5.80
2018-02-04T09:00:09.019Z,5.57
2018-02-04T09:02:36.502Z,5.20
2018-02-04T09:05:03.955Z,7.60
2018-02-04T09:07:31.443Z,7.63
2018-02-04T09:09:58.901Z,6.37
2018-02-04T09:12:26.370Z,6.17
2018-02-04T09:14:53.828Z,5.60
2018-02-04T09:17:22.214Z,5.40
2018-02-04T09:19:49.667Z,5.20
2018-02-04T09:22:17.146Z,4.90
2018-02-04T09:24:44.611Z,8.60
2018-02-04T09:27:12.098Z,5.10
2018-02-04T09:29:39.555Z,5.77
2018-02-04T09:32:07.027Z,5.70
2018-02-04T09:34:34.490Z,6.87
2018-02-04T09:37:01.967Z,5.83
2018-02-04T09:39:29.562Z,5.93
2018-02-04T09:41:57.043Z,4.77
2018-02-04T09:44:24.506Z,5.57
2018-02-04T09:46:52.026Z,5.90
2018-02-04T09:49:19.524Z,6.77
2018-02-04T09:51:46.999Z,5.20
2018-02-04T09:54:14.455Z,10.73
2018-02-04T09:56:41.934Z,6.67
2018-02-04T09:59:09.410Z,6.10
2018-02-04T10:01:36.888Z,7.37
2018-02-04T10:04:04.366Z,5.40
2018-02-04T10:06:31.834Z,8.17
2018-02-04T10:08:59.364Z,6.77
2018-02-04T10:11:26.835Z,6.07
2018-02-04T10:13:54.301Z,6.47
2018-02-04T10:16:21.766Z,7.27
2018-02-04T10:18:49.227Z,5.97
2018-02-04T10:21:16.714Z,8.73
2018-02-04T10:23:44.167Z,6.77
2018-02-04T10:26:11.628Z,8.23
2018-02-04T10:28:39.108Z,7.03
2018-02-04T10:31:06.566Z,7.63
2018-02-04T10:36:07.819Z,7.70
2018-02-04T10:38:35.304Z,5.70
2018-02-04T10:41:02.899Z,6.90
2018-02-04T10:43:30.375Z,7.50
2018-02-04T10:45:57.828Z,9.03
2018-02-04T10:48:25.299Z,6.47
2018-02-04T10:50:58.441Z,7.10
2018-02-04T10:53:25.911Z,7.23
2018-02-04T10:55:53.471Z,7.00
2018-02-04T10:58:20.944Z,6.90
2018-02-04T11:00:48.411Z,10.03
2018-02-04T11:03:15.886Z,7.27
2018-02-04T11:05:43.347Z,7.90
2018-02-04T11:08:10.827Z,9.27
2018-02-04T11:10:38.283Z,6.90
2018-02-04T11:13:05.766Z,8.90
2018-02-04T11:15:33.222Z,7.73
2018-02-04T11:18:00.708Z,9.07
2018-02-04T11:20:28.182Z,9.20
2018-02-04T11:22:55.655Z,7.97
2018-02-04T11:25:23.116Z,7.33
2018-02-04T11:27:50.636Z,7.37
2018-02-04T11:30:18.095Z,6.80
2018-02-04T11:32:45.579Z,7.43
2018-02-04T11:35:13.036Z,9.60
2018-02-04T11:37:40.505Z,8.40
2018-02-04T11:40:07.972Z,9.73
2018-02-04T11:42:35.547Z,7.97
2018-02-04T11:45:03.043Z,8.70
2018-02-04T11:47:30.507Z,16.13
2018-02-04T11:49:57.987Z,10.10
2018-02-04T11:52:25.454Z,10.37
2018-02-04T11:54:52.927Z,9.70
2018-02-04T11:57:20.387Z,10.13
2018-02-04T11:59:47.862Z,9.97
2018-02-04T12:02:15.321Z,10.53
2018-02-04T12:04:42.803Z,11.43
2018-02-04T12:07:10.270Z,12.10
2018-02-04T12:09:37.759Z,11.93
2018-02-04T12:12:05.225Z,18.83
2018-02-04T12:14:32.708Z,17.23
2018-02-04T12:17:00.174Z,13.57
2018-02-04T12:19:28.183Z,16.97
2018-02-04T12:21:55.638Z,13.70
2018-02-04T12:24:23.116Z,15.53
2018-02-04T12:26:50.576Z,14.30
2018-02-04T12:29:18.064Z,12.43
2018-02-04T12:31:45.527Z,14.40
2018-02-04T12:34:13.010Z,13.90
2018-02-04T12:36:40.473Z,12.47
2018-02-04T12:39:08.043Z,14.80
2018-02-04T12:41:35.518Z,16.67
2018-02-04T12:44:03.008Z,15.27
2018-02-04T12:46:30.471Z,14.10
2018-02-04T12:48:57.952Z,14.77
2018-02-04T12:51:25.423Z,14.17
2018-02-04T12:53:52.901Z,13.23
2018-02-04T12:56:20.403Z,12.03
2018-02-04T12:58:47.965Z,14.47
2018-02-04T13:01:15.605Z,21.07
2018-02-04T13:03:43.096Z,19.40
2018-02-04T13:06:10.567Z,15.93
2018-02-04T13:08:38.043Z,28.87
2018-02-04T13:11:05.530Z,21.37
2018-02-04T13:13:33.021Z,19.10
2018-02-04T13:16:00.508Z,16.40
2018-02-04T13:18:27.979Z,22.37
2018-02-04T13:20:55.470Z,26.47
2018-02-04T13:23:22.959Z,16.03
2018-02-04T13:25:50.453Z,21.33
2018-02-04T13:28:17.920Z,27.53
2018-02-04T13:30:45.402Z,23.23
2018-02-04T13:33:12.863Z,17.57
2018-02-04T13:35:40.346Z,20.50
2018-02-04T13:38:07.803Z,11.03
2018-02-04T13:40:35.295Z,11.90
2018-02-04T13:43:02.763Z,11.53
2018-02-04T13:45:30.248Z,13.03
2018-02-04T13:47:57.711Z,13.43
2018-02-04T13:50:25.182Z,10.13
2018-02-04T13:52:52.644Z,8.00
2018-02-04T13:55:20.123Z,7.80
2018-02-04T13:57:47.575Z,8.47
2018-02-04T14:00:15.047Z,8.93
2018-02-04T14:02:42.494Z,7.57
2018-02-04T14:05:09.977Z,8.23
2018-02-04T14:07:37.435Z,8.10
2018-02-04T14:10:04.906Z,8.90
2018-02-04T14:12:32.376Z,8.53
2018-02-04T14:14:59.851Z,8.50
2018-02-04T14:17:27.311Z,8.87
2018-02-04T14:19:54.791Z,8.50
2018-02-04T14:22:22.268Z,10.40
2018-02-04T14:24:49.747Z,9.43
2018-02-04T14:27:17.200Z,7.83
2018-02-04T14:29:45.526Z,7.00
2018-02-04T14:32:12.985Z,8.07
2018-02-04T14:34:40.448Z,6.80
2018-02-04T14:37:07.919Z,6.70
2018-02-04T14:39:35.382Z,7.93
2018-02-04T14:42:02.879Z,8.50
2018-02-04T14:44:30.339Z,11.53
2018-02-04T14:46:57.815Z,7.17
2018-02-04T14:49:25.266Z,7.20
2018-02-04T14:51:52.840Z,5.97
2018-02-04T14:54:20.305Z,5.97
2018-02-04T14:56:47.786Z,7.70
2018-02-04T14:59:15.240Z,5.83
2018-02-04T15:01:42.734Z,5.33
2018-02-04T15:04:10.198Z,5.20
2018-02-04T15:06:37.691Z,5.33
2018-02-04T15:09:05.155Z,6.00
2018-02-04T15:11:33.099Z,4.80
2018-02-04T15:14:00.610Z,4.53
2018-02-04T15:16:28.063Z,4.40
2018-02-04T15:18:55.519Z,4.87
2018-02-04T15:21:23.086Z,4.73
2018-02-04T15:23:50.538Z,4.27
2018-02-04T15:26:18.014Z,4.60
2018-02-04T15:28:45.471Z,4.70
2018-02-04T15:31:12.942Z,5.40
2018-02-04T15:33:40.390Z,5.93
2018-02-04T15:36:07.882Z,4.90
2018-02-04T15:38:35.633Z,5.37
2018-02-04T15:41:03.412Z,4.07
2018-02-04T15:43:30.902Z,5.37
2018-02-04T15:45:58.393Z,5.50
2018-02-04T15:48:25.928Z,5.50
2018-02-04T15:50:53.351Z,4.87
2018-02-04T15:53:20.843Z,5.10
2018-02-04T15:55:48.319Z,5.40
2018-02-04T15:58:15.775Z,4.73
2018-02-04T16:00:43.254Z,4.93
2018-02-04T16:03:10.736Z,5.57
2018-02-04T16:05:38.252Z,5.97
2018-02-04T16:08:05.750Z,5.13
2018-02-04T16:10:33.207Z,5.47
2018-02-04T16:13:00.690Z,4.87
2018-02-04T16:15:28.163Z,5.83
2018-02-04T16:17:55.646Z,5.37
2018-02-04T16:20:23.139Z,5.80
2018-02-04T16:22:50.635Z,6.07
2018-02-04T16:25:18.167Z,5.50
2018-02-04T16:27:45.652Z,7.70
2018-02-04T16:30:13.114Z,8.37
2018-02-04T16:32:40.586Z,8.63
2018-02-04T16:35:08.046Z,7.43
2018-02-04T16:37:35.531Z,6.50
2018-02-04T16:40:03.024Z,5.80
2018-02-04T16:42:30.514Z,6.13
2018-02-04T16:44:58.228Z,8.70
2018-02-04T16:47:25.711Z,38.50
2018-02-04T16:49:53.170Z,40.90
2018-02-04T16:52:20.679Z,14.63
2018-02-04T16:54:48.159Z,9.03
2018-02-04T16:57:15.659Z,7.70
2018-02-04T16:59:43.247Z,8.50
2018-02-04T17:02:10.727Z,7.83
2018-02-04T17:04:38.190Z,9.50
2018-02-04T17:07:05.661Z,9.60
2018-02-04T17:09:33.110Z,9.50
2018-02-04T17:12:00.653Z,9.57
2018-02-04T17:14:28.136Z,8.50
2018-02-04T17:16:55.626Z,10.30
2018-02-04T17:19:23.129Z,10.70
2018-02-04T17:21:50.620Z,10.50
2018-02-04T17:24:18.120Z,10.27
2018-02-04T17:26:45.588Z,10.47
2018-02-04T17:29:13.062Z,10.80
2018-02-04T17:31:40.521Z,9.23
2018-02-04T17:34:07.997Z,8.70
2018-02-04T17:36:35.454Z,8.47
2018-02-04T17:39:02.938Z,13.97
2018-02-04T17:41:30.408Z,11.07
2018-02-04T17:43:57.886Z,8.50
2018-02-04T17:46:25.354Z,10.73
2018-02-04T17:48:52.838Z,7.87
2018-02-04T17:51:20.348Z,8.67
2018-02-04T17:53:47.826Z,8.43
2018-02-04T17:56:15.278Z,8.60
2018-02-04T17:58:42.766Z,7.97
2018-02-04T18:01:10.246Z,8.07
2018-02-04T18:03:37.725Z,7.60
2018-02-04T18:06:05.198Z,8.67
2018-02-04T18:08:32.767Z,8.53
2018-02-04T18:11:00.775Z,7.90
2018-02-04T18:13:28.270Z,10.23
2018-02-04T18:15:55.724Z,9.77
2018-02-04T18:18:23.195Z,9.77
2018-02-04T18:20:50.646Z,8.97
2018-02-04T18:23:18.140Z,8.17
2018-02-04T18:25:45.603Z,7.30
2018-02-04T18:28:13.080Z,8.20
2018-02-04T18:30:40.539Z,8.57
2018-02-04T18:33:08.012Z,9.27
2018-02-04T18:35:35.464Z,8.47
2018-02-04T18:38:02.943Z,8.37
2018-02-04T18:40:38.531Z,8.27
2018-02-04T18:43:06.013Z,8.50
2018-02-04T18:45:33.508Z,8.33
2018-02-04T18:48:00.987Z,7.03
2018-02-04T18:50:28.467Z,10.07
2018-02-04T18:52:55.954Z,10.63
2018-02-04T18:55:23.416Z,8.97
2018-02-04T18:57:50.879Z,9.27
2018-02-04T19:00:18.628Z,14.73
2018-02-04T19:02:46.091Z,11.53
2018-02-04T19:05:13.589Z,10.50
2018-02-04T19:07:41.050Z,13.37
2018-02-04T19:10:09.386Z,10.33
2018-02-04T19:12:36.854Z,9.23
2018-02-04T19:15:04.331Z,10.20
2018-02-04T19:17:31.808Z,9.60
2018-02-04T19:19:59.356Z,11.47
2018-02-04T19:22:26.843Z,10.93
2018-02-04T19:24:54.335Z,11.03
2018-02-04T19:27:21.794Z,10.10
2018-02-04T19:29:49.294Z,9.30
2018-02-04T19:32:16.751Z,10.57
2018-02-04T19:34:44.223Z,9.10
2018-02-04T19:37:11.703Z,10.53
2018-02-04T19:39:39.846Z,10.03
2018-02-04T19:42:07.307Z,10.33
2018-02-04T19:44:35.079Z,10.17
2018-02-04T19:47:02.539Z,11.57
2018-02-04T19:49:30.531Z,10.30
2018-02-04T19:51:57.986Z,11.43
2018-02-04T19:54:25.480Z,10.03
2018-02-04T19:56:52.947Z,11.10
2018-02-04T19:59:20.419Z,12.77
2018-02-04T20:01:48.816Z,13.03
2018-02-04T20:04:16.314Z,9.97
2018-02-04T20:06:43.776Z,8.60
2018-02-04T20:09:11.255Z,11.07
2018-02-04T20:11:38.741Z,10.43
2018-02-04T20:14:06.232Z,12.10
2018-02-04T20:16:33.771Z,13.43
2018-02-04T20:19:01.432Z,17.20
2018-02-04T20:21:29.135Z,18.77
2018-02-04T20:23:56.597Z,13.77
2018-02-04T20:26:24.138Z,15.23
2018-02-04T20:28:51.595Z,13.57
2018-02-04T20:31:19.083Z,14.37
2018-02-04T20:33:58.339Z,11.83
2018-02-04T20:36:25.826Z,12.87
2018-02-04T20:38:53.282Z,12.00
2018-02-04T20:41:20.760Z,12.23
2018-02-04T20:43:48.230Z,13.17
2018-02-04T20:46:15.747Z,15.03
2018-02-04T20:48:43.210Z,10.90
2018-02-04T20:51:10.806Z,12.40
2018-02-04T20:53:38.267Z,12.17
2018-02-04T20:56:05.755Z,13.87
2018-02-04T20:58:35.617Z,15.43
2018-02-04T21:01:03.231Z,14.13
2018-02-04T21:03:30.693Z,15.63
2018-02-04T21:05:58.171Z,13.03
2018-02-04T21:08:25.626Z,16.90
2018-02-04T21:10:53.120Z,13.23
2018-02-04T21:13:20.580Z,14.00
2018-02-04T21:15:48.074Z,11.90
2018-02-04T21:18:15.543Z,13.87
2018-02-04T21:20:43.026Z,14.17
2018-02-04T21:23:10.503Z,15.17
2018-02-04T21:25:37.998Z,12.47
2018-02-04T21:28:05.459Z,13.13
2018-02-04T21:30:32.939Z,12.73
2018-02-04T21:33:00.401Z,10.97
2018-02-04T21:35:27.874Z,10.87
2018-02-04T21:37:55.334Z,11.40
2018-02-04T21:40:22.826Z,13.80
2018-02-04T21:42:50.296Z,11.93
2018-02-04T21:45:17.801Z,12.97
2018-02-04T21:47:45.264Z,12.03
2018-02-04T21:50:12.720Z,10.93
2018-02-04T21:52:40.260Z,12.43
2018-02-04T21:55:07.757Z,10.70
2018-02-04T21:57:35.259Z,14.40
2018-02-04T22:00:02.727Z,11.73
2018-02-04T22:02:30.204Z,12.83
2018-02-04T22:04:57.675Z,11.20
2018-02-04T22:07:25.165Z,12.00
2018-02-04T22:09:52.626Z,12.40
2018-02-04T22:12:20.100Z,10.27
2018-02-04T22:14:47.563Z,12.10
2018-02-04T22:17:15.044Z,11.17
2018-02-04T22:19:42.523Z,12.83
2018-02-04T22:22:10.001Z,14.43
2018-02-04T22:24:37.457Z,10.47
2018-02-04T22:27:04.942Z,11.20
2018-02-04T22:29:32.406Z,13.93
2018-02-04T22:31:59.894Z,12.27
2018-02-04T22:34:27.353Z,13.63
2018-02-04T22:36:54.834Z,13.37
2018-02-04T22:39:22.294Z,11.77
2018-02-04T22:41:49.767Z,10.80
2018-02-04T22:44:17.226Z,14.00
2018-02-04T22:46:44.719Z,13.27
2018-02-04T22:49:12.174Z,13.57
2018-02-04T22:51:39.658Z,11.60
2018-02-04T22:54:07.136Z,12.30
2018-02-04T22:56:34.619Z,12.00
2018-02-04T22:59:02.085Z,12.63
2018-02-04T23:01:29.579Z,13.77
2018-02-04T23:03:57.052Z,13.60
2018-02-04T23:06:24.532Z,12.73
2018-02-04T23:08:51.994Z,12.43
2018-02-04T23:11:19.459Z,11.90
2018-02-04T23:13:46.939Z,11.67
2018-02-04T23:16:14.394Z,12.23
2018-02-04T23:18:41.898Z,12.27
2018-02-04T23:21:09.368Z,13.00
2018-02-04T23:23:36.851Z,12.97
2018-02-04T23:26:04.321Z,10.97
2018-02-04T23:28:31.812Z,13.17
2018-02-04T23:30:59.279Z,12.23
2018-02-04T23:33:26.758Z,12.03
2018-02-04T23:35:54.230Z,12.93
2018-02-04T23:38:21.714Z,13.33
2018-02-04T23:40:49.190Z,11.10
2018-02-04T23:43:16.670Z,12.50
2018-02-04T23:45:44.137Z,11.33
2018-02-04T23:48:11.627Z,13.47
2018-02-04T23:50:39.086Z,12.10
2018-02-04T23:53:06.569Z,10.97
2018-02-04T23:55:34.031Z,11.73
2018-02-04T23:58:01.515Z,11.60
